Time;durP1;ratioP1;P1;durP2;ratioP2;P2;SDS_P1;SDS_P2;PMS_P1;PMS_P2;Temp;Humidity;BMP_temperature;BMP_pressure;BME280_temperature;BME280_humidity;BME280_pressure;Samples;Min_cycle;Max_cycle;Signal;HPM_P1;HPM_P2
2023/05/19 00:01:48;;;;;;;16.03;2.93;;;9.10;99.90;;;;;;470376;253;28090;-81
2023/05/19 00:03:51;;;;;;;6.27;2.73;;;9.00;99.90;;;;;;470301;248;27996;-84
2023/05/19 00:05:50;;;;;;;15.37;3.83;;;9.00;99.90;;;;;;470243;253;28035;-82
2023/05/19 00:07:51;;;;;;;5.20;2.50;;;9.00;99.90;;;;;;471838;252;27898;-81
2023/05/19 00:09:53;;;;;;;5.77;2.63;;;8.90;99.90;;;;;;488024;244;27838;-83
2023/05/19 00:11:55;;;;;;;7.53;2.70;;;8.90;99.90;;;;;;488036;244;28041;-82
2023/05/19 00:13:55;;;;;;;4.53;3.00;;;8.90;99.90;;;;;;487942;241;27836;-83
2023/05/19 00:15:56;;;;;;;6.00;2.50;;;8.90;99.90;;;;;;487998;244;27932;-81
2023/05/19 00:17:58;;;;;;;9.10;2.70;;;8.80;99.90;;;;;;488008;241;28062;-83
2023/05/19 00:19:59;;;;;;;4.37;3.07;;;8.80;99.90;;;;;;488042;241;27904;-82
2023/05/19 00:22:00;;;;;;;7.63;2.73;;;8.70;99.90;;;;;;487989;244;27979;-80
2023/05/19 00:24:01;;;;;;;5.20;2.80;;;8.70;99.90;;;;;;487981;244;28004;-82
2023/05/19 00:26:02;;;;;;;4.97;2.77;;;8.70;99.90;;;;;;487999;244;27812;-82
2023/05/19 00:28:04;;;;;;;4.43;2.80;;;8.70;99.90;;;;;;488003;244;27946;-81
2023/05/19 00:30:05;;;;;;;6.70;3.00;;;8.70;99.90;;;;;;487999;241;27965;-84
2023/05/19 00:32:06;;;;;;;7.90;2.80;;;8.60;99.90;;;;;;487994;244;27730;-81
2023/05/19 00:34:11;;;;;;;6.67;2.77;;;8.60;99.90;;;;;;487903;244;27945;-82
2023/05/19 00:36:09;;;;;;;9.03;3.10;;;8.60;99.90;;;;;;487739;241;27574;-83
2023/05/19 00:38:10;;;;;;;6.27;3.10;;;8.60;99.90;;;;;;487983;244;28559;-82
2023/05/19 00:40:11;;;;;;;4.93;2.90;;;8.60;99.90;;;;;;487990;244;28047;-84
2023/05/19 00:42:12;;;;;;;6.13;2.63;;;8.60;99.90;;;;;;487965;241;27718;-81
2023/05/19 00:44:14;;;;;;;13.00;2.97;;;8.60;99.90;;;;;;487925;244;28071;-80
2023/05/19 00:46:15;;;;;;;4.07;2.73;;;8.50;99.90;;;;;;487895;244;27850;-79
2023/05/19 00:48:16;;;;;;;8.63;3.10;;;8.50;99.90;;;;;;488004;241;28059;-81
2023/05/19 00:50:17;;;;;;;7.07;3.00;;;8.50;99.90;;;;;;487972;244;27963;-84
2023/05/19 00:52:19;;;;;;;6.10;3.30;;;8.50;99.90;;;;;;487988;244;27969;-83
2023/05/19 00:54:20;;;;;;;5.70;3.27;;;8.50;99.90;;;;;;487935;244;28014;-79
2023/05/19 00:56:21;;;;;;;4.23;2.90;;;8.60;99.90;;;;;;487908;241;28005;-85
2023/05/19 00:58:24;;;;;;;5.50;2.80;;;8.50;99.90;;;;;;487999;244;28008;-83
2023/05/19 01:00:24;;;;;;;8.37;3.27;;;8.60;99.90;;;;;;487872;244;28057;-82
2023/05/19 01:02:25;;;;;;;7.53;2.67;;;8.60;99.90;;;;;;487912;244;28034;-82
2023/05/19 01:04:26;;;;;;;5.30;3.03;;;8.50;99.90;;;;;;487969;241;28053;-84
2023/05/19 01:06:28;;;;;;;5.00;2.77;;;8.50;99.90;;;;;;487882;244;28041;-82
2023/05/19 01:08:30;;;;;;;5.40;3.07;;;8.50;99.90;;;;;;487960;241;27996;-81
2023/05/19 01:10:30;;;;;;;8.43;3.10;;;8.50;99.90;;;;;;487906;241;27850;-81
2023/05/19 01:12:31;;;;;;;6.93;3.50;;;8.40;99.90;;;;;;487957;244;27400;-83
2023/05/19 01:14:32;;;;;;;4.33;2.73;;;8.40;99.90;;;;;;487918;244;27838;-83
2023/05/19 01:16:34;;;;;;;5.10;3.13;;;8.40;99.90;;;;;;487939;244;28351;-83
2023/05/19 01:18:35;;;;;;;6.77;3.17;;;8.40;99.90;;;;;;487938;244;27967;-81
2023/05/19 01:20:37;;;;;;;10.10;3.10;;;8.40;99.90;;;;;;487923;244;27822;-81
2023/05/19 01:22:41;;;;;;;4.03;2.57;;;8.30;99.90;;;;;;487851;241;27933;-80
2023/05/19 01:24:39;;;;;;;7.90;3.00;;;8.30;99.90;;;;;;487695;240;28386;-83
2023/05/19 01:26:40;;;;;;;9.47;3.33;;;8.30;99.90;;;;;;488055;244;27838;-82
2023/05/19 01:28:41;;;;;;;10.77;3.30;;;8.30;99.90;;;;;;488073;244;27953;-81
2023/05/19 01:30:42;;;;;;;4.03;3.23;;;8.30;99.90;;;;;;488125;241;28083;-82
2023/05/19 01:32:44;;;;;;;4.03;3.10;;;8.30;99.90;;;;;;488058;244;27701;-80
2023/05/19 01:34:45;;;;;;;7.37;3.73;;;8.20;99.90;;;;;;487992;244;27851;-81
2023/05/19 01:36:47;;;;;;;7.47;2.70;;;8.20;99.90;;;;;;487974;244;28149;-84
2023/05/19 01:38:47;;;;;;;10.50;3.20;;;8.30;99.90;;;;;;487906;244;28011;-81
2023/05/19 01:40:49;;;;;;;2.63;2.27;;;8.30;99.90;;;;;;487948;244;28009;-83
2023/05/19 01:42:50;;;;;;;3.40;3.10;;;8.20;99.90;;;;;;487956;244;28072;-81
2023/05/19 01:44:51;;;;;;;8.13;3.40;;;8.10;99.90;;;;;;487930;244;27838;-82
2023/05/19 01:46:52;;;;;;;6.10;3.03;;;8.20;99.90;;;;;;487942;244;27489;-81
2023/05/19 01:48:54;;;;;;;4.57;2.70;;;8.20;99.90;;;;;;487972;241;27966;-82
2023/05/19 01:50:56;;;;;;;4.10;2.60;;;8.10;99.90;;;;;;487940;244;28028;-82
2023/05/19 01:52:56;;;;;;;9.10;3.57;;;8.00;99.90;;;;;;487940;244;27981;-83
2023/05/19 01:54:57;;;;;;;6.23;2.80;;;8.10;99.90;;;;;;487933;244;27943;-84
2023/05/19 01:56:59;;;;;;;4.80;2.80;;;8.10;99.90;;;;;;487927;244;28182;-83
2023/05/19 01:59:00;;;;;;;6.10;3.60;;;8.00;99.90;;;;;;487914;244;27948;-82
2023/05/19 02:01:01;;;;;;;5.00;3.10;;;7.90;99.90;;;;;;487861;244;28052;-83
2023/05/19 02:03:02;;;;;;;5.40;2.80;;;7.80;99.90;;;;;;487966;241;27911;-81
2023/05/19 02:05:04;;;;;;;6.03;3.10;;;7.70;99.90;;;;;;487868;244;28084;-83
2023/05/19 02:07:05;;;;;;;4.47;2.77;;;7.60;99.90;;;;;;487909;244;28051;-82
2023/05/19 02:09:06;;;;;;;8.13;3.27;;;7.50;99.90;;;;;;487894;244;27986;-80
2023/05/19 02:11:07;;;;;;;6.03;2.80;;;7.40;99.90;;;;;;487955;244;28114;-81
2023/05/19 02:13:09;;;;;;;3.77;2.80;;;7.40;99.90;;;;;;487931;244;27981;-82
2023/05/19 02:15:10;;;;;;;4.50;3.10;;;7.30;99.90;;;;;;487850;244;27821;-81
2023/05/19 02:17:11;;;;;;;5.93;2.60;;;7.30;99.90;;;;;;487904;244;27971;-82
2023/05/19 02:19:12;;;;;;;4.97;3.03;;;7.30;99.90;;;;;;487860;244;28512;-82
2023/05/19 02:21:14;;;;;;;5.83;3.20;;;7.40;99.90;;;;;;487882;244;28155;-82
2023/05/19 02:23:15;;;;;;;4.50;3.33;;;7.30;99.90;;;;;;487946;244;28046;-80
2023/05/19 02:25:16;;;;;;;4.00;3.03;;;7.20;99.90;;;;;;487877;244;27849;-81
2023/05/19 02:27:17;;;;;;;6.13;2.83;;;7.10;99.90;;;;;;487893;244;27971;-81
2023/05/19 02:29:19;;;;;;;6.23;3.00;;;7.10;99.90;;;;;;488023;244;28421;-80
2023/05/19 02:31:20;;;;;;;9.60;4.00;;;7.00;99.90;;;;;;487931;244;28330;-82
2023/05/19 02:33:24;;;;;;;5.60;3.03;;;7.00;99.90;;;;;;487977;244;27990;-83
2023/05/19 02:35:22;;;;;;;6.80;3.03;;;7.10;99.90;;;;;;487684;244;28115;-83
2023/05/19 02:37:24;;;;;;;4.83;3.20;;;7.00;99.90;;;;;;487986;241;28032;-82
2023/05/19 02:39:25;;;;;;;6.80;3.23;;;7.00;99.90;;;;;;488008;244;28067;-82
2023/05/19 02:41:26;;;;;;;5.57;3.10;;;7.10;99.90;;;;;;488030;244;27913;-81
2023/05/19 02:43:29;;;;;;;9.00;3.30;;;7.10;99.90;;;;;;487982;244;27977;-82
2023/05/19 02:45:29;;;;;;;9.33;4.10;;;7.20;99.90;;;;;;487915;244;27941;-82
2023/05/19 02:47:30;;;;;;;7.53;3.17;;;7.20;99.90;;;;;;488003;241;27682;-79
2023/05/19 02:49:34;;;;;;;8.63;3.80;;;7.30;99.90;;;;;;488003;244;27967;-82
2023/05/19 02:51:33;;;;;;;5.13;3.17;;;7.30;99.90;;;;;;487704;244;27966;-83
2023/05/19 02:53:35;;;;;;;5.60;3.10;;;7.30;99.90;;;;;;487958;244;27964;-81
2023/05/19 02:55:36;;;;;;;5.53;2.90;;;7.30;99.90;;;;;;487861;244;28112;-81
2023/05/19 02:57:37;;;;;;;7.30;3.20;;;7.30;99.90;;;;;;487867;241;27831;-82
2023/05/19 02:59:39;;;;;;;4.07;2.90;;;7.30;99.90;;;;;;487895;241;28068;-81
2023/05/19 03:01:40;;;;;;;4.80;2.57;;;7.10;99.90;;;;;;487875;244;27847;-84
2023/05/19 03:03:41;;;;;;;7.90;3.10;;;7.10;99.90;;;;;;487901;244;27974;-82
2023/05/19 03:05:42;;;;;;;3.67;2.80;;;7.00;99.90;;;;;;487886;244;27910;-82
2023/05/19 03:07:44;;;;;;;9.27;3.83;;;6.90;99.90;;;;;;487906;244;28035;-83
2023/05/19 03:09:45;;;;;;;7.93;4.20;;;6.90;99.90;;;;;;487868;241;27985;-84
2023/05/19 03:11:46;;;;;;;7.70;4.30;;;6.80;99.90;;;;;;487876;244;28148;-81
2023/05/19 03:13:47;;;;;;;7.47;3.50;;;6.80;99.90;;;;;;487853;244;27969;-80
2023/05/19 03:15:49;;;;;;;11.73;3.60;;;6.80;99.90;;;;;;487892;244;27848;-82
2023/05/19 03:17:50;;;;;;;8.83;3.07;;;6.70;99.90;;;;;;487874;244;27977;-82
2023/05/19 03:19:51;;;;;;;4.90;3.37;;;6.80;99.90;;;;;;487911;244;27937;-82
2023/05/19 03:21:53;;;;;;;7.10;3.00;;;6.90;99.90;;;;;;487852;244;27853;-81
2023/05/19 03:23:54;;;;;;;6.80;3.10;;;6.80;99.90;;;;;;487871;244;27855;-81
2023/05/19 03:25:55;;;;;;;5.83;2.87;;;6.80;99.90;;;;;;487867;241;27838;-83
2023/05/19 03:27:56;;;;;;;4.33;3.17;;;6.80;99.90;;;;;;487855;244;27964;-81
2023/05/19 03:29:57;;;;;;;7.83;3.17;;;6.80;99.90;;;;;;487867;244;27963;-80
2023/05/19 03:31:59;;;;;;;3.53;3.00;;;6.80;99.90;;;;;;487917;244;28548;-81
2023/05/19 03:34:00;;;;;;;7.77;3.67;;;6.80;99.90;;;;;;487829;244;28175;-83
2023/05/19 03:36:03;;;;;;;5.40;2.83;;;6.80;99.90;;;;;;487883;244;27951;-82
2023/05/19 03:38:02;;;;;;;3.90;2.97;;;6.60;99.90;;;;;;487842;244;27858;-81
2023/05/19 03:40:04;;;;;;;9.67;3.50;;;6.50;99.90;;;;;;487887;244;27972;-82
2023/05/19 03:42:05;;;;;;;5.97;2.97;;;6.50;99.90;;;;;;487862;244;27985;-83
2023/05/19 03:44:06;;;;;;;4.67;2.60;;;6.60;99.90;;;;;;487845;244;28154;-84
2023/05/19 03:46:07;;;;;;;5.70;3.83;;;6.50;99.90;;;;;;487852;244;28177;-83
2023/05/19 03:48:09;;;;;;;5.10;3.30;;;6.50;99.90;;;;;;487933;244;27986;-83
2023/05/19 03:50:10;;;;;;;3.97;2.70;;;6.50;99.90;;;;;;487858;244;27830;-85
2023/05/19 03:52:11;;;;;;;6.77;2.90;;;6.60;99.90;;;;;;487863;244;27979;-81
2023/05/19 03:54:12;;;;;;;2.80;2.60;;;6.60;99.90;;;;;;487817;244;28525;-80
2023/05/19 03:56:15;;;;;;;5.90;2.80;;;6.60;99.90;;;;;;487825;244;27958;-84
2023/05/19 03:58:15;;;;;;;5.70;3.97;;;6.60;99.90;;;;;;487769;244;28485;-82
2023/05/19 04:00:16;;;;;;;5.13;2.50;;;6.60;99.90;;;;;;487810;244;28042;-84
2023/05/19 04:02:17;;;;;;;4.43;3.27;;;6.60;99.90;;;;;;487898;244;28551;-82
2023/05/19 04:04:20;;;;;;;10.03;3.83;;;6.60;99.90;;;;;;487851;241;27847;-82
2023/05/19 04:06:20;;;;;;;7.60;2.90;;;6.60;99.90;;;;;;487785;244;27982;-84
2023/05/19 04:08:21;;;;;;;5.97;2.70;;;6.50;99.90;;;;;;487881;244;27625;-81
2023/05/19 04:10:22;;;;;;;8.40;3.37;;;6.60;99.90;;;;;;487846;241;27929;-82
2023/05/19 04:12:24;;;;;;;7.60;3.17;;;6.50;99.90;;;;;;487861;244;27994;-82
2023/05/19 04:14:25;;;;;;;8.57;3.47;;;6.50;99.90;;;;;;487828;244;27966;-83
2023/05/19 04:16:26;;;;;;;5.70;3.00;;;6.60;99.90;;;;;;487853;244;27974;-81
2023/05/19 04:18:27;;;;;;;6.23;3.30;;;6.70;99.90;;;;;;487888;244;28154;-82
2023/05/19 04:20:29;;;;;;;5.53;2.90;;;6.70;99.90;;;;;;487896;244;27812;-83
2023/05/19 04:22:30;;;;;;;4.50;3.30;;;6.70;99.90;;;;;;487886;244;28044;-82
2023/05/19 04:24:32;;;;;;;3.33;3.03;;;6.70;99.90;;;;;;487851;241;28031;-81
2023/05/19 04:26:33;;;;;;;3.70;2.83;;;6.70;99.90;;;;;;487888;244;28108;-80
2023/05/19 04:28:37;;;;;;;5.20;3.63;;;6.60;99.90;;;;;;487913;244;28054;-80
2023/05/19 04:30:35;;;;;;;9.83;3.30;;;6.60;99.90;;;;;;487652;244;27968;-83
2023/05/19 04:32:36;;;;;;;5.70;3.17;;;6.50;99.90;;;;;;487783;244;28050;-83
2023/05/19 04:34:39;;;;;;;5.73;3.40;;;6.60;99.90;;;;;;487828;244;28081;-83
2023/05/19 04:36:39;;;;;;;3.37;2.90;;;6.50;99.90;;;;;;487816;241;27954;-82
2023/05/19 04:38:40;;;;;;;8.23;3.00;;;6.50;99.90;;;;;;487875;241;27956;-83
2023/05/19 04:40:42;;;;;;;5.60;3.07;;;6.50;99.90;;;;;;487914;244;28058;-84
2023/05/19 04:42:44;;;;;;;4.93;3.30;;;6.50;99.90;;;;;;487817;241;28071;-82
2023/05/19 04:44:44;;;;;;;5.20;3.10;;;6.60;99.90;;;;;;487819;244;27856;-81
2023/05/19 04:46:45;;;;;;;4.60;3.50;;;6.70;99.90;;;;;;487927;244;27900;-81
2023/05/19 04:48:46;;;;;;;5.17;2.80;;;6.70;99.90;;;;;;487904;244;27598;-81
2023/05/19 04:50:47;;;;;;;6.00;2.90;;;6.80;99.90;;;;;;487869;244;28023;-82
2023/05/19 04:52:49;;;;;;;4.10;3.23;;;6.80;99.90;;;;;;487823;244;28062;-82
2023/05/19 04:54:50;;;;;;;3.37;2.80;;;6.80;99.90;;;;;;487826;244;27982;-81
2023/05/19 04:56:51;;;;;;;8.20;3.17;;;6.90;99.90;;;;;;487908;244;27995;-82
2023/05/19 04:58:52;;;;;;;6.30;2.93;;;7.10;99.90;;;;;;487925;244;27835;-81
2023/05/19 05:00:57;;;;;;;3.57;3.10;;;7.20;99.90;;;;;;487949;244;28058;-83
2023/05/19 05:02:58;;;;;;;4.90;2.47;;;7.40;99.90;;;;;;487897;244;27939;-84
2023/05/19 05:04:59;;;;;;;3.00;2.67;;;7.40;99.90;;;;;;487897;244;27939;-83
2023/05/19 05:07:00;;;;;;;4.60;2.87;;;7.50;99.90;;;;;;487933;241;27605;-82
2023/05/19 05:09:03;;;;;;;5.23;2.83;;;7.50;99.90;;;;;;487903;244;27904;-83
2023/05/19 05:11:03;;;;;;;5.03;2.47;;;7.50;99.90;;;;;;487793;244;28069;-82
2023/05/19 05:13:04;;;;;;;4.63;2.53;;;7.50;99.90;;;;;;487871;244;27605;-84
2023/05/19 05:15:05;;;;;;;6.47;2.70;;;7.50;99.90;;;;;;487989;244;27984;-83
2023/05/19 05:17:07;;;;;;;5.13;3.00;;;7.60;99.90;;;;;;488082;244;27803;-82
2023/05/19 05:19:08;;;;;;;4.40;3.43;;;7.70;99.90;;;;;;488079;241;27843;-83
2023/05/19 05:21:09;;;;;;;8.57;3.03;;;7.80;99.90;;;;;;488072;241;27883;-81
2023/05/19 05:23:13;;;;;;;6.13;2.43;;;7.90;99.90;;;;;;487988;244;27955;-81
2023/05/19 05:25:12;;;;;;;8.93;3.37;;;7.90;99.90;;;;;;487770;244;27740;-82
2023/05/19 05:27:13;;;;;;;7.70;3.33;;;8.00;99.90;;;;;;487964;244;28019;-81
2023/05/19 05:29:14;;;;;;;4.97;3.13;;;8.00;99.90;;;;;;487970;241;28126;-83
2023/05/19 05:31:15;;;;;;;6.03;3.30;;;8.10;99.90;;;;;;487929;244;27729;-83
2023/05/19 05:33:18;;;;;;;5.20;2.80;;;8.10;99.90;;;;;;487908;241;27930;-81
2023/05/19 05:35:18;;;;;;;6.10;3.07;;;8.20;99.90;;;;;;487859;244;27893;-82
2023/05/19 05:37:19;;;;;;;5.10;2.70;;;8.20;99.90;;;;;;487973;244;28162;-82
2023/05/19 05:39:20;;;;;;;4.80;3.30;;;8.20;99.90;;;;;;487939;241;28048;-82
2023/05/19 05:41:22;;;;;;;5.70;2.83;;;8.20;99.90;;;;;;487894;244;27889;-81
2023/05/19 05:43:23;;;;;;;6.60;3.00;;;8.30;99.90;;;;;;487900;244;27943;-81
2023/05/19 05:45:24;;;;;;;6.20;2.80;;;8.30;99.90;;;;;;487890;244;27985;-82
2023/05/19 05:47:25;;;;;;;6.17;3.30;;;8.40;99.90;;;;;;487894;241;27950;-80
2023/05/19 05:49:27;;;;;;;4.03;2.57;;;8.40;99.90;;;;;;487963;244;28031;-83
2023/05/19 05:51:28;;;;;;;7.90;3.17;;;8.50;99.90;;;;;;487935;244;27985;-81
2023/05/19 05:53:29;;;;;;;8.47;3.10;;;8.50;99.90;;;;;;487915;244;27970;-82
2023/05/19 05:55:30;;;;;;;6.50;3.00;;;8.60;99.90;;;;;;487935;244;27912;-81
2023/05/19 05:57:34;;;;;;;6.43;3.03;;;8.60;99.90;;;;;;487913;244;27772;-82
2023/05/19 05:59:33;;;;;;;7.47;2.77;;;8.70;99.90;;;;;;487781;244;27945;-82
2023/05/19 06:01:37;;;;;;;9.00;3.40;;;8.70;99.90;;;;;;487974;241;28045;-82
2023/05/19 06:03:38;;;;;;;9.37;2.83;;;8.70;99.90;;;;;;487957;244;28031;-82
2023/05/19 06:05:39;;;;;;;4.33;2.80;;;8.80;99.90;;;;;;487974;244;27725;-82
2023/05/19 06:07:41;;;;;;;7.40;2.77;;;8.90;99.90;;;;;;487941;244;27951;-83
2023/05/19 06:09:42;;;;;;;9.03;3.37;;;8.90;99.90;;;;;;487849;241;27869;-81
2023/05/19 06:11:43;;;;;;;4.53;2.73;;;8.90;99.90;;;;;;487933;244;28152;-83
2023/05/19 06:13:44;;;;;;;9.67;2.67;;;9.00;99.90;;;;;;487978;244;27974;-81
2023/05/19 06:15:46;;;;;;;8.87;3.23;;;9.00;99.90;;;;;;487944;244;27926;-81
2023/05/19 06:17:47;;;;;;;15.70;3.13;;;9.10;99.90;;;;;;487972;244;27895;-83
2023/05/19 06:19:48;;;;;;;10.80;2.97;;;9.20;99.90;;;;;;487939;244;27927;-82
2023/05/19 06:21:50;;;;;;;4.40;2.80;;;9.10;99.90;;;;;;487978;244;27983;-86
2023/05/19 06:23:51;;;;;;;3.73;2.87;;;9.30;99.90;;;;;;487997;244;27988;-81
2023/05/19 06:25:52;;;;;;;7.07;2.57;;;9.40;99.90;;;;;;488071;244;27822;-80
2023/05/19 06:27:53;;;;;;;2.70;2.43;;;9.50;99.90;;;;;;488073;241;27892;-83
2023/05/19 06:29:54;;;;;;;7.80;2.80;;;9.30;99.90;;;;;;488078;244;27976;-79
2023/05/19 06:31:56;;;;;;;4.77;2.27;;;9.50;99.90;;;;;;488074;244;28514;-82
2023/05/19 06:33:57;;;;;;;6.23;2.43;;;9.60;99.90;;;;;;488095;240;28055;-79
2023/05/19 06:35:58;;;;;;;4.80;2.40;;;9.70;99.90;;;;;;488085;240;27946;-79
2023/05/19 06:38:00;;;;;;;7.50;2.70;;;9.70;99.90;;;;;;488177;240;28100;-79
2023/05/19 06:40:01;;;;;;;5.90;2.70;;;9.70;99.90;;;;;;488090;244;28220;-79
2023/05/19 06:42:02;;;;;;;6.50;2.70;;;9.80;99.90;;;;;;488160;240;28051;-80
2023/05/19 06:44:03;;;;;;;7.60;2.70;;;10.00;99.90;;;;;;488169;244;28185;-79
2023/05/19 06:46:04;;;;;;;9.23;2.47;;;10.00;99.90;;;;;;488148;240;27932;-79
2023/05/19 06:48:06;;;;;;;3.70;2.47;;;10.20;99.90;;;;;;488155;240;28017;-81
2023/05/19 06:50:07;;;;;;;7.63;2.87;;;10.30;99.90;;;;;;488169;240;28174;-80
2023/05/19 06:52:09;;;;;;;8.00;2.90;;;10.40;99.90;;;;;;488127;244;28173;-80
2023/05/19 06:54:11;;;;;;;3.13;2.33;;;10.40;99.90;;;;;;488145;240;28112;-78
2023/05/19 06:56:11;;;;;;;4.57;2.20;;;10.50;99.90;;;;;;488086;244;28430;-80
2023/05/19 06:58:12;;;;;;;10.40;2.67;;;10.60;99.90;;;;;;488191;240;28383;-80
2023/05/19 07:00:15;;;;;;;5.33;2.47;;;10.70;99.90;;;;;;488154;240;28429;-80
2023/05/19 07:02:15;;;;;;;7.33;2.90;;;10.80;99.90;;;;;;488024;244;28341;-81
2023/05/19 07:04:16;;;;;;;3.80;2.20;;;10.80;99.90;;;;;;488166;240;28032;-81
2023/05/19 07:06:17;;;;;;;10.73;2.90;;;10.80;99.90;;;;;;488133;241;28191;-82
2023/05/19 07:08:19;;;;;;;3.67;2.33;;;10.80;99.90;;;;;;488123;240;28454;-81
2023/05/19 07:10:20;;;;;;;5.20;2.50;;;10.90;99.90;;;;;;488134;241;28416;-81
2023/05/19 07:12:23;;;;;;;6.53;2.60;;;;;;;;;;485058;236;28878;-83
2023/05/19 07:14:24;;;;;;;4.70;2.53;;;10.80;99.90;;;;;;471197;247;27031;-79
2023/05/19 07:16:25;;;;;;;4.67;2.70;;;11.10;99.90;;;;;;487916;239;28407;-79
2023/05/19 07:18:28;;;;;;;8.27;2.73;;;11.40;99.90;;;;;;490395;241;27916;-80
2023/05/19 07:20:27;;;;;;;6.47;2.90;;;11.50;99.90;;;;;;490196;240;28162;-80
2023/05/19 07:22:29;;;;;;;5.30;2.70;;;11.50;99.90;;;;;;490252;241;28266;-79
2023/05/19 07:24:30;;;;;;;8.17;2.80;;;11.50;99.90;;;;;;490248;241;28454;-80
2023/05/19 07:26:31;;;;;;;4.63;2.40;;;11.40;99.90;;;;;;490297;243;28439;-79
2023/05/19 07:28:33;;;;;;;5.83;2.77;;;11.40;99.90;;;;;;490349;240;28785;-77
2023/05/19 07:30:34;;;;;;;3.27;2.33;;;11.50;99.90;;;;;;484377;242;27991;-79
2023/05/19 07:32:35;;;;;;;3.80;2.33;;;11.60;99.90;;;;;;493750;240;28833;-79
2023/05/19 07:34:36;;;;;;;7.60;2.70;;;11.60;99.90;;;;;;481375;238;28135;-84
2023/05/19 07:38:48;;;;;;;6.77;2.97;;;11.70;99.90;;;;;;469297;241;28396;-78
2023/05/19 07:40:49;;;;;;;5.53;2.60;;;11.80;99.90;;;;;;480753;244;28092;-80
2023/05/19 07:42:50;;;;;;;6.10;2.53;;;11.80;99.90;;;;;;470013;246;28375;-84
2023/05/19 07:44:51;;;;;;;7.37;2.80;;;11.90;99.90;;;;;;470314;248;28275;-85
2023/05/19 07:46:53;;;;;;;3.97;2.53;;;12.00;99.90;;;;;;475593;242;28243;-83
2023/05/19 07:48:54;;;;;;;5.40;2.60;;;12.20;99.90;;;;;;473366;242;28564;-84
2023/05/19 07:50:55;;;;;;;6.60;2.90;;;12.10;99.90;;;;;;467166;248;28314;-86
2023/05/19 07:52:56;;;;;;;7.27;2.70;;;12.30;99.90;;;;;;467153;248;28271;-83
2023/05/19 07:54:58;;;;;;;12.13;2.87;;;12.30;99.90;;;;;;467136;248;28098;-85
2023/05/19 07:56:59;;;;;;;9.33;3.13;;;12.30;99.90;;;;;;466956;249;28392;-84
2023/05/19 07:59:01;;;;;;;6.97;3.03;;;;;;;;;;468485;249;29219;-84
2023/05/19 08:01:03;;;;;;;8.80;2.90;;;12.40;99.90;;;;;;478427;245;26516;-83
2023/05/19 08:03:04;;;;;;;5.50;3.17;;;12.50;99.90;;;;;;478414;244;28208;-83
2023/05/19 08:05:05;;;;;;;2.90;2.40;;;12.60;99.90;;;;;;478406;244;28106;-85
2023/05/19 08:07:06;;;;;;;7.17;2.70;;;12.60;99.90;;;;;;478393;245;28074;-85
2023/05/19 08:09:08;;;;;;;8.30;3.47;;;12.60;99.90;;;;;;478793;243;28242;-80
2023/05/19 08:11:09;;;;;;;6.30;2.73;;;12.70;99.90;;;;;;491153;242;28302;-80
2023/05/19 08:13:10;;;;;;;6.50;2.60;;;12.70;99.90;;;;;;491122;243;28063;-84
2023/05/19 08:15:11;;;;;;;3.20;2.57;;;12.90;99.90;;;;;;490988;243;28149;-84
2023/05/19 08:17:13;;;;;;;5.37;2.80;;;13.00;99.90;;;;;;491014;243;28188;-84
2023/05/19 08:19:14;;;;;;;7.17;3.00;;;13.10;99.90;;;;;;490952;243;28285;-83
2023/05/19 08:21:15;;;;;;;7.70;3.40;;;12.90;99.90;;;;;;490824;243;28832;-84
2023/05/19 08:23:16;;;;;;;6.10;2.57;;;12.90;99.90;;;;;;491042;243;28276;-82
2023/05/19 08:25:18;;;;;;;9.00;3.23;;;13.00;99.90;;;;;;491032;243;28311;-83
2023/05/19 08:27:19;;;;;;;5.50;2.63;;;13.10;99.90;;;;;;491020;243;29031;-84
2023/05/19 08:29:20;;;;;;;7.87;2.87;;;13.10;99.90;;;;;;491111;243;28625;-82
2023/05/19 08:31:22;;;;;;;6.50;2.90;;;13.10;99.90;;;;;;491052;243;28242;-83
2023/05/19 08:33:23;;;;;;;6.00;2.90;;;13.20;99.90;;;;;;491057;243;28172;-83
2023/05/19 08:35:25;;;;;;;5.50;2.53;;;;;;;;;;491043;243;28477;-86
2023/05/19 08:37:26;;;;;;;9.20;3.20;;;12.90;99.90;;;;;;491027;243;26633;-81
2023/05/19 08:39:27;;;;;;;13.10;3.10;;;12.90;99.90;;;;;;491025;243;28793;-81
2023/05/19 08:41:29;;;;;;;7.07;3.20;;;13.10;99.90;;;;;;490981;243;28765;-83
2023/05/19 08:43:30;;;;;;;8.03;3.20;;;13.20;99.90;;;;;;491075;243;28933;-84
2023/05/19 08:45:33;;;;;;;4.27;2.70;;;13.20;99.90;;;;;;490851;243;28254;-84
2023/05/19 08:47:32;;;;;;;5.70;2.70;;;13.20;99.90;;;;;;490898;243;28424;-82
2023/05/19 08:49:34;;;;;;;6.97;3.00;;;13.20;99.90;;;;;;490983;243;28295;-84
2023/05/19 08:51:35;;;;;;;8.20;3.43;;;13.40;99.90;;;;;;490973;243;28306;-83
2023/05/19 08:53:36;;;;;;;10.23;2.70;;;13.40;99.90;;;;;;490791;243;28279;-83
2023/05/19 08:55:37;;;;;;;4.83;2.70;;;13.50;99.90;;;;;;490650;243;28418;-85
2023/05/19 08:57:39;;;;;;;10.83;3.47;;;13.60;99.90;;;;;;490539;243;28410;-84
2023/05/19 08:59:40;;;;;;;7.17;3.20;;;13.80;99.90;;;;;;490393;243;28511;-82
2023/05/19 09:01:41;;;;;;;13.43;3.70;;;13.80;99.90;;;;;;490340;243;28511;-85
2023/05/19 09:03:43;;;;;;;7.63;3.23;;;13.80;99.90;;;;;;490417;243;28974;-84
2023/05/19 09:05:44;;;;;;;8.20;3.17;;;13.60;99.90;;;;;;490569;243;28980;-86
2023/05/19 09:07:47;;;;;;;6.33;3.07;;;13.60;99.80;;;;;;490494;243;28747;-85
2023/05/19 09:09:46;;;;;;;8.97;2.60;;;13.50;99.90;;;;;;490388;243;28287;-83
2023/05/19 09:11:48;;;;;;;5.67;2.87;;;13.80;99.90;;;;;;490543;243;28915;-83
2023/05/19 09:13:49;;;;;;;8.50;3.40;;;13.80;99.90;;;;;;490526;243;28936;-86
2023/05/19 09:15:50;;;;;;;8.43;3.30;;;13.90;99.70;;;;;;490409;243;28516;-86
2023/05/19 09:17:51;;;;;;;7.00;2.70;;;13.70;99.60;;;;;;490605;243;28779;-84
2023/05/19 09:19:53;;;;;;;7.43;2.87;;;13.80;99.90;;;;;;490362;243;28510;-83
2023/05/19 09:21:55;;;;;;;6.90;2.83;;;13.90;99.50;;;;;;490325;243;28648;-85
2023/05/19 09:23:55;;;;;;;9.60;3.20;;;13.90;99.50;;;;;;490326;243;28289;-81
2023/05/19 09:25:56;;;;;;;14.37;3.60;;;14.20;99.90;;;;;;490161;241;29181;-84
2023/05/19 09:27:58;;;;;;;11.27;3.20;;;14.30;99.90;;;;;;490218;243;29173;-85
2023/05/19 09:29:59;;;;;;;6.90;3.07;;;14.20;98.30;;;;;;490299;243;29166;-83
2023/05/19 09:32:03;;;;;;;8.63;2.93;;;14.30;98.70;;;;;;490291;243;28904;-85
2023/05/19 09:34:01;;;;;;;6.90;3.23;;;14.30;98.20;;;;;;490177;243;28833;-84
2023/05/19 09:36:04;;;;;;;8.37;3.67;;;14.10;97.60;;;;;;490418;243;28627;-86
2023/05/19 09:38:05;;;;;;;4.37;2.60;;;13.80;97.50;;;;;;490344;243;28732;-84
2023/05/19 09:40:05;;;;;;;5.90;2.80;;;13.90;99.50;;;;;;490383;243;28702;-84
2023/05/19 09:42:06;;;;;;;5.93;3.00;;;14.20;99.80;;;;;;490207;243;28781;-82
2023/05/19 09:44:08;;;;;;;7.43;2.93;;;14.50;95.60;;;;;;490162;243;28462;-84
2023/05/19 09:46:12;;;;;;;9.10;3.33;;;14.50;95.70;;;;;;490148;243;28810;-84
2023/05/19 09:48:11;;;;;;;8.43;3.13;;;14.50;94.80;;;;;;489867;243;28712;-85
2023/05/19 09:50:12;;;;;;;4.73;2.63;;;15.00;95.20;;;;;;489928;243;29200;-81
2023/05/19 09:52:14;;;;;;;10.10;3.70;;;14.80;93.30;;;;;;489912;243;29268;-86
2023/05/19 09:54:15;;;;;;;4.63;2.83;;;14.60;93.40;;;;;;489949;243;29219;-84
2023/05/19 09:56:16;;;;;;;8.00;2.83;;;14.70;92.90;;;;;;489967;243;28713;-85
2023/05/19 09:58:16;;;;;;;6.00;2.90;;;15.00;92.90;;;;;;490034;243;28771;-85
2023/05/19 10:00:18;;;;;;;5.50;2.80;;;15.00;91.60;;;;;;489935;243;28714;-83
2023/05/19 10:02:20;;;;;;;7.47;3.20;;;15.10;91.60;;;;;;489930;243;28710;-85
2023/05/19 10:04:20;;;;;;;7.00;2.70;;;15.20;92.20;;;;;;489812;243;28723;-79
2023/05/19 10:06:21;;;;;;;8.30;2.97;;;15.30;91.30;;;;;;489889;243;28821;-85
2023/05/19 10:08:25;;;;;;;8.43;2.67;;;15.30;91.20;;;;;;489893;243;28807;-85
2023/05/19 10:10:24;;;;;;;11.40;3.07;;;15.10;90.80;;;;;;489772;243;28725;-83
2023/05/19 10:12:25;;;;;;;4.30;2.60;;;15.20;90.90;;;;;;489860;243;28698;-84
2023/05/19 10:14:26;;;;;;;9.43;3.17;;;15.50;92.30;;;;;;489823;243;29254;-85
2023/05/19 10:16:28;;;;;;;11.07;2.97;;;15.80;91.60;;;;;;489823;243;29679;-87
2023/05/19 10:18:29;;;;;;;3.93;2.40;;;16.10;90.90;;;;;;489849;243;28698;-84
2023/05/19 10:20:30;;;;;;;11.10;2.87;;;15.90;85.80;;;;;;489860;243;28737;-83
2023/05/19 10:22:31;;;;;;;11.30;2.90;;;15.40;85.50;;;;;;489863;243;28789;-83
2023/05/19 10:24:33;;;;;;;4.83;2.47;;;15.50;84.80;;;;;;489776;243;28731;-83
2023/05/19 10:26:34;;;;;;;6.60;3.13;;;15.60;85.60;;;;;;489840;243;28706;-86
2023/05/19 10:28:35;;;;;;;5.30;2.40;;;15.80;85.10;;;;;;489842;243;28758;-84
2023/05/19 10:30:36;;;;;;;4.90;3.10;;;15.80;89.00;;;;;;489860;243;28695;-83
2023/05/19 10:32:38;;;;;;;7.10;2.63;;;16.00;86.90;;;;;;489835;243;28789;-85
2023/05/19 10:34:39;;;;;;;6.73;3.37;;;15.90;87.50;;;;;;489796;243;29234;-84
2023/05/19 10:36:40;;;;;;;5.13;2.50;;;15.70;85.30;;;;;;489863;243;29588;-85
2023/05/19 10:38:44;;;;;;;6.67;2.37;;;15.80;84.80;;;;;;489881;243;29178;-85